sensor_id;sensor_type;location;lat;lon;timestamp;pressure;altitude;pressure_sealevel;temperature;humidity
73870;BME280;64924;42.140;24.762;2023-05-16T00:00:53;99487.88;;;17.58;62.20
73870;BME280;64924;42.140;24.762;2023-05-16T00:03:19;99468.91;;;17.57;62.13
73870;BME280;64924;42.140;24.762;2023-05-16T00:05:45;99485.03;;;17.65;61.72
73870;BME280;64924;42.140;24.762;2023-05-16T00:08:11;99473.06;;;17.59;62.28
73870;BME280;64924;42.140;24.762;2023-05-16T00:10:36;99476.38;;;17.45;62.68
73870;BME280;64924;42.140;24.762;2023-05-16T00:13:02;99458.13;;;17.38;62.44
73870;BME280;64924;42.140;24.762;2023-05-16T00:15:28;99466.47;;;17.44;62.39
73870;BME280;64924;42.140;24.762;2023-05-16T00:17:55;99464.03;;;17.47;62.54
73870;BME280;64924;42.140;24.762;2023-05-16T00:20:24;99458.28;;;17.32;62.88
73870;BME280;64924;42.140;24.762;2023-05-16T00:22:51;99468.53;;;17.36;62.61
73870;BME280;64924;42.140;24.762;2023-05-16T00:25:17;99439.47;;;17.12;63.22
73870;BME280;64924;42.140;24.762;2023-05-16T00:27:42;99456.03;;;17.17;63.09
73870;BME280;64924;42.140;24.762;2023-05-16T00:30:08;99466.53;;;17.20;63.32
73870;BME280;64924;42.140;24.762;2023-05-16T00:32:34;99462.91;;;17.03;63.76
73870;BME280;64924;42.140;24.762;2023-05-16T00:35:00;99446.13;;;16.76;64.59
73870;BME280;64924;42.140;24.762;2023-05-16T00:37:26;99464.94;;;16.96;64.28
73870;BME280;64924;42.140;24.762;2023-05-16T00:39:51;99451.22;;;16.96;64.05
73870;BME280;64924;42.140;24.762;2023-05-16T00:42:20;99451.47;;;16.83;64.73
73870;BME280;64924;42.140;24.762;2023-05-16T00:44:47;99456.38;;;16.81;64.75
73870;BME280;64924;42.140;24.762;2023-05-16T00:47:12;99458.28;;;16.92;64.33
73870;BME280;64924;42.140;24.762;2023-05-16T00:49:38;99455.06;;;16.71;65.19
73870;BME280;64924;42.140;24.762;2023-05-16T00:52:04;99447.69;;;16.60;65.28
73870;BME280;64924;42.140;24.762;2023-05-16T00:54:30;99432.44;;;16.64;64.91
73870;BME280;64924;42.140;24.762;2023-05-16T00:56:56;99456.13;;;16.82;64.91
73870;BME280;64924;42.140;24.762;2023-05-16T00:59:25;99434.66;;;16.79;64.85
73870;BME280;64924;42.140;24.762;2023-05-16T01:01:51;99448.25;;;16.86;64.68
73870;BME280;64924;42.140;24.762;2023-05-16T01:04:17;99441.81;;;16.92;64.38
73870;BME280;64924;42.140;24.762;2023-05-16T01:06:44;99441.81;;;16.92;64.62
73870;BME280;64924;42.140;24.762;2023-05-16T01:09:09;99409.53;;;16.70;64.47
73870;BME280;64924;42.140;24.762;2023-05-16T01:12:14;99440.38;;;16.89;64.56
73870;BME280;64924;42.140;24.762;2023-05-16T01:18:02;99437.66;;;16.54;65.79
73870;BME280;64924;42.140;24.762;2023-05-16T01:20:44;99401.44;;;16.29;66.21
73870;BME280;64924;42.140;24.762;2023-05-16T01:28:15;99425.38;;;16.45;66.09
73870;BME280;64924;42.140;24.762;2023-05-16T01:30:41;99432.19;;;16.43;66.37
73870;BME280;64924;42.140;24.762;2023-05-16T01:33:07;99434.94;;;16.31;66.39
73870;BME280;64924;42.140;24.762;2023-05-16T01:35:37;99428.97;;;16.34;66.75
73870;BME280;64924;42.140;24.762;2023-05-16T01:38:24;99361.66;;;15.91;66.66
73870;BME280;64924;42.140;24.762;2023-05-16T01:41:03;99425.50;;;16.38;66.72
73870;BME280;64924;42.140;24.762;2023-05-16T01:43:37;99418.00;;;16.46;66.22
73870;BME280;64924;42.140;24.762;2023-05-16T01:46:10;99410.16;;;16.26;66.58
73870;BME280;64924;42.140;24.762;2023-05-16T01:49:14;99415.50;;;16.44;66.31
73870;BME280;64924;42.140;24.762;2023-05-16T01:51:48;99366.53;;;16.13;66.36
73870;BME280;64924;42.140;24.762;2023-05-16T01:54:17;99401.91;;;16.49;66.02
73870;BME280;64924;42.140;24.762;2023-05-16T01:56:50;99402.50;;;16.51;65.86
73870;BME280;64924;42.140;24.762;2023-05-16T01:59:19;99386.41;;;16.43;65.80
73870;BME280;64924;42.140;24.762;2023-05-16T02:01:45;99393.19;;;16.41;66.11
73870;BME280;64924;42.140;24.762;2023-05-16T02:04:11;99372.59;;;16.15;66.49
73870;BME280;64924;42.140;24.762;2023-05-16T02:06:39;99388.09;;;16.21;66.72
73870;BME280;64924;42.140;24.762;2023-05-16T02:09:05;99371.28;;;16.29;66.36
73870;BME280;64924;42.140;24.762;2023-05-16T02:11:31;99377.03;;;16.27;66.43
73870;BME280;64924;42.140;24.762;2023-05-16T02:13:56;99327.69;;;16.04;66.41
73870;BME280;64924;42.140;24.762;2023-05-16T02:16:22;99372.72;;;16.31;66.06
73870;BME280;64924;42.140;24.762;2023-05-16T02:18:47;99384.03;;;16.35;66.41
73870;BME280;64924;42.140;24.762;2023-05-16T02:21:13;99390.34;;;16.35;65.90
73870;BME280;64924;42.140;24.762;2023-05-16T02:23:38;99345.44;;;16.13;66.00
73870;BME280;64924;42.140;24.762;2023-05-16T02:26:04;99388.91;;;16.45;65.47
73870;BME280;64924;42.140;24.762;2023-05-16T02:28:29;99373.03;;;16.47;65.27
73870;BME280;64924;42.140;24.762;2023-05-16T02:30:58;99385.56;;;16.66;65.11
73870;BME280;64924;42.140;24.762;2023-05-16T02:33:25;99382.34;;;16.69;65.09
73870;BME280;64924;42.140;24.762;2023-05-16T02:35:52;99369.81;;;16.61;64.78
73870;BME280;64924;42.140;24.762;2023-05-16T02:38:17;99363.16;;;16.46;64.97
73870;BME280;64924;42.140;24.762;2023-05-16T02:40:45;99372.09;;;16.64;64.86
73870;BME280;64924;42.140;24.762;2023-05-16T02:43:11;99382.22;;;16.64;65.06
73870;BME280;64924;42.140;24.762;2023-05-16T02:45:37;99358.38;;;16.41;65.71
73870;BME280;64924;42.140;24.762;2023-05-16T02:48:02;99360.06;;;16.42;65.79
73870;BME280;64924;42.140;24.762;2023-05-16T02:50:28;99347.09;;;16.26;66.37
73870;BME280;64924;42.140;24.762;2023-05-16T02:52:53;99349.72;;;16.09;67.01
73870;BME280;64924;42.140;24.762;2023-05-16T02:55:19;99350.91;;;16.01;67.02
73870;BME280;64924;42.140;24.762;2023-05-16T02:57:44;99332.84;;;15.89;67.00
73870;BME280;64924;42.140;24.762;2023-05-16T03:00:10;99355.31;;;16.02;66.97
73870;BME280;64924;42.140;24.762;2023-05-16T03:02:37;99332.00;;;15.88;67.02
73870;BME280;64924;42.140;24.762;2023-05-16T03:05:03;99382.97;;;16.13;66.54
73870;BME280;64924;42.140;24.762;2023-05-16T03:07:29;99389.78;;;16.22;66.26
73870;BME280;64924;42.140;24.762;2023-05-16T03:09:54;99395.81;;;16.35;66.21
73870;BME280;64924;42.140;24.762;2023-05-16T03:12:20;99374.03;;;16.29;66.10
73870;BME280;64924;42.140;24.762;2023-05-16T03:14:45;99392.25;;;16.47;65.54
73870;BME280;64924;42.140;24.762;2023-05-16T03:17:11;99388.66;;;16.46;65.63
73870;BME280;64924;42.140;24.762;2023-05-16T03:19:36;99403.47;;;16.33;66.22
73870;BME280;64924;42.140;24.762;2023-05-16T03:22:02;99394.50;;;16.38;65.72
73870;BME280;64924;42.140;24.762;2023-05-16T03:24:28;99379.25;;;16.42;65.79
73870;BME280;64924;42.140;24.762;2023-05-16T03:26:54;99387.34;;;16.37;66.00
73870;BME280;64924;42.140;24.762;2023-05-16T03:29:19;99399.78;;;16.28;66.04
73870;BME280;64924;42.140;24.762;2023-05-16T03:31:45;99410.72;;;16.39;65.97
73870;BME280;64924;42.140;24.762;2023-05-16T03:34:10;99376.88;;;16.34;66.03
73870;BME280;64924;42.140;24.762;2023-05-16T03:36:38;99372.97;;;16.30;66.02
73870;BME280;64924;42.140;24.762;2023-05-16T03:39:04;99388.22;;;16.02;66.77
73870;BME280;64924;42.140;24.762;2023-05-16T03:41:29;99387.38;;;16.14;66.59
73870;BME280;64924;42.140;24.762;2023-05-16T03:43:55;99397.88;;;16.17;66.60
73870;BME280;64924;42.140;24.762;2023-05-16T03:46:20;99396.69;;;16.13;66.67
73870;BME280;64924;42.140;24.762;2023-05-16T03:48:46;99406.56;;;16.25;66.82
73870;BME280;64924;42.140;24.762;2023-05-16T03:51:11;99406.06;;;16.40;66.14
73870;BME280;64924;42.140;24.762;2023-05-16T03:53:37;99359.84;;;16.32;65.27
73870;BME280;64924;42.140;24.762;2023-05-16T03:56:02;99374.69;;;16.59;64.84
73870;BME280;64924;42.140;24.762;2023-05-16T03:58:28;99389.94;;;16.79;64.49
73870;BME280;64924;42.140;24.762;2023-05-16T04:00:53;99401.03;;;16.72;65.05
73870;BME280;64924;42.140;24.762;2023-05-16T04:03:19;99398.56;;;16.70;65.20
73870;BME280;64924;42.140;24.762;2023-05-16T04:05:52;99389.16;;;16.66;65.02
73870;BME280;64924;42.140;24.762;2023-05-16T04:08:18;99390.16;;;16.77;64.76
73870;BME280;64924;42.140;24.762;2023-05-16T04:10:43;99388.34;;;16.94;64.45
73870;BME280;64924;42.140;24.762;2023-05-16T04:13:08;99358.09;;;16.78;64.16
73870;BME280;64924;42.140;24.762;2023-05-16T04:15:34;99381.44;;;16.92;64.44
73870;BME280;64924;42.140;24.762;2023-05-16T04:17:59;99377.75;;;17.15;63.47
73870;BME280;64924;42.140;24.762;2023-05-16T04:20:25;99392.91;;;17.17;63.50
73870;BME280;64924;42.140;24.762;2023-05-16T04:22:52;99384.06;;;17.15;63.45
73870;BME280;64924;42.140;24.762;2023-05-16T04:25:17;99386.91;;;17.20;63.03
73870;BME280;64924;42.140;24.762;2023-05-16T04:27:43;99380.84;;;17.18;63.33
73870;BME280;64924;42.140;24.762;2023-05-16T04:30:09;99370.84;;;17.41;62.69
73870;BME280;64924;42.140;24.762;2023-05-16T04:32:36;99377.25;;;17.63;62.03
73870;BME280;64924;42.140;24.762;2023-05-16T04:35:02;99388.66;;;17.55;61.75
73870;BME280;64924;42.140;24.762;2023-05-16T04:37:27;99382.50;;;17.64;61.34
73870;BME280;64924;42.140;24.762;2023-05-16T04:39:53;99386.00;;;17.60;61.30
73870;BME280;64924;42.140;24.762;2023-05-16T04:42:19;99396.50;;;17.63;61.18
73870;BME280;64924;42.140;24.762;2023-05-16T04:44:44;99404.94;;;17.73;60.50
73870;BME280;64924;42.140;24.762;2023-05-16T04:47:12;99405.03;;;17.78;60.44
73870;BME280;64924;42.140;24.762;2023-05-16T04:49:37;99405.13;;;17.55;61.13
73870;BME280;64924;42.140;24.762;2023-05-16T04:52:05;99397.63;;;17.50;61.53
73870;BME280;64924;42.140;24.762;2023-05-16T04:54:32;99403.47;;;17.54;61.00
73870;BME280;64924;42.140;24.762;2023-05-16T04:56:58;99404.16;;;17.61;60.40
73870;BME280;64924;42.140;24.762;2023-05-16T04:59:23;99366.31;;;17.34;60.66
73870;BME280;64924;42.140;24.762;2023-05-16T05:01:49;99384.78;;;17.84;59.88
73870;BME280;64924;42.140;24.762;2023-05-16T05:04:14;99386.78;;;18.06;58.28
73870;BME280;64924;42.140;24.762;2023-05-16T05:06:42;99392.69;;;18.14;57.91
73870;BME280;64924;42.140;24.762;2023-05-16T05:09:08;99406.13;;;18.49;56.88
73870;BME280;64924;42.140;24.762;2023-05-16T05:11:34;99403.69;;;18.69;56.52
73870;BME280;64924;42.140;24.762;2023-05-16T05:13:59;99401.00;;;18.75;56.13
73870;BME280;64924;42.140;24.762;2023-05-16T05:16:25;99393.69;;;18.63;55.92
73870;BME280;64924;42.140;24.762;2023-05-16T05:18:51;99403.81;;;18.41;56.54
73870;BME280;64924;42.140;24.762;2023-05-16T05:21:16;99404.56;;;18.36;56.60
73870;BME280;64924;42.140;24.762;2023-05-16T05:23:44;99390.16;;;18.29;57.21
73870;BME280;64924;42.140;24.762;2023-05-16T05:26:10;99391.94;;;18.19;57.30
73870;BME280;64924;42.140;24.762;2023-05-16T05:28:36;99393.03;;;18.18;57.09
73870;BME280;64924;42.140;24.762;2023-05-16T05:31:03;99392.97;;;18.34;56.98
73870;BME280;64924;42.140;24.762;2023-05-16T05:33:29;99398.00;;;18.59;56.50
73870;BME280;64924;42.140;24.762;2023-05-16T05:35:55;99406.44;;;18.69;56.21
73870;BME280;64924;42.140;24.762;2023-05-16T05:38:21;99401.00;;;18.75;55.59
73870;BME280;64924;42.140;24.762;2023-05-16T05:40:47;99391.22;;;18.45;55.56
73870;BME280;64924;42.140;24.762;2023-05-16T05:43:14;99371.06;;;18.23;55.80
73870;BME280;64924;42.140;24.762;2023-05-16T05:45:39;99373.78;;;18.18;56.19
73870;BME280;64924;42.140;24.762;2023-05-16T05:48:06;99366.72;;;18.05;56.60
73870;BME280;64924;42.140;24.762;2023-05-16T05:50:32;99366.66;;;18.22;56.58
73870;BME280;64924;42.140;24.762;2023-05-16T05:52:57;99359.50;;;18.21;56.36
73870;BME280;64924;42.140;24.762;2023-05-16T05:55:23;99386.13;;;18.15;57.01
73870;BME280;64924;42.140;24.762;2023-05-16T05:57:48;99382.44;;;18.10;57.06
73870;BME280;64924;42.140;24.762;2023-05-16T06:00:14;99378.75;;;18.21;56.72
73870;BME280;64924;42.140;24.762;2023-05-16T06:02:40;99383.50;;;18.25;56.52
73870;BME280;64924;42.140;24.762;2023-05-16T06:05:06;99375.44;;;18.19;56.51
73870;BME280;64924;42.140;24.762;2023-05-16T06:07:31;99371.22;;;17.78;57.83
73870;BME280;64924;42.140;24.762;2023-05-16T06:09:57;99367.47;;;17.67;58.57
73870;BME280;64924;42.140;24.762;2023-05-16T06:12:24;99380.25;;;17.45;59.16
73870;BME280;64924;42.140;24.762;2023-05-16T06:14:49;99395.06;;;17.15;60.11
73870;BME280;64924;42.140;24.762;2023-05-16T06:17:15;99393.25;;;17.21;60.61
73870;BME280;64924;42.140;24.762;2023-05-16T06:19:40;99379.31;;;17.11;60.74
73870;BME280;64924;42.140;24.762;2023-05-16T06:22:05;99410.41;;;16.99;61.26
73870;BME280;64924;42.140;24.762;2023-05-16T06:24:31;99420.25;;;17.12;61.08
73870;BME280;64924;42.140;24.762;2023-05-16T06:26:56;99376.75;;;17.04;61.05
73870;BME280;64924;42.140;24.762;2023-05-16T06:29:22;99326.09;;;16.83;61.14
73870;BME280;64924;42.140;24.762;2023-05-16T06:31:47;99396.91;;;17.26;60.93
73870;BME280;64924;42.140;24.762;2023-05-16T06:34:13;99381.38;;;17.32;60.54
73870;BME280;64924;42.140;24.762;2023-05-16T06:36:39;99412.66;;;17.02;60.77
73870;BME280;64924;42.140;24.762;2023-05-16T06:39:04;99381.63;;;17.02;61.06
73870;BME280;64924;42.140;24.762;2023-05-16T06:41:30;99356.34;;;17.00;60.91
73870;BME280;64924;42.140;24.762;2023-05-16T06:43:55;99349.53;;;17.02;60.83
73870;BME280;64924;42.140;24.762;2023-05-16T06:46:21;99362.44;;;17.02;60.72
73870;BME280;64924;42.140;24.762;2023-05-16T06:48:47;99372.25;;;17.15;60.26
73870;BME280;64924;42.140;24.762;2023-05-16T06:51:12;99369.72;;;17.25;60.63
73870;BME280;64924;42.140;24.762;2023-05-16T06:53:38;99360.41;;;17.26;60.18
73870;BME280;64924;42.140;24.762;2023-05-16T06:56:03;99366.03;;;17.19;60.17
73870;BME280;64924;42.140;24.762;2023-05-16T06:58:29;99355.84;;;17.31;60.02
73870;BME280;64924;42.140;24.762;2023-05-16T07:00:55;99353.03;;;17.43;60.06
73870;BME280;64924;42.140;24.762;2023-05-16T07:03:20;99331.81;;;17.38;59.91
73870;BME280;64924;42.140;24.762;2023-05-16T07:05:46;99370.06;;;17.74;59.16
73870;BME280;64924;42.140;24.762;2023-05-16T07:08:11;99364.88;;;17.94;58.60
73870;BME280;64924;42.140;24.762;2023-05-16T07:10:38;99356.78;;;18.04;57.88
73870;BME280;64924;42.140;24.762;2023-05-16T07:13:03;99343.88;;;18.04;57.80
73870;BME280;64924;42.140;24.762;2023-05-16T07:15:30;99337.28;;;18.06;57.79
73870;BME280;64924;42.140;24.762;2023-05-16T07:17:56;99357.03;;;18.19;57.66
73870;BME280;64924;42.140;24.762;2023-05-16T07:20:21;99305.13;;;18.06;57.33
73870;BME280;64924;42.140;24.762;2023-05-16T07:22:47;99331.13;;;18.37;57.34
73870;BME280;64924;42.140;24.762;2023-05-16T07:25:13;99339.13;;;18.38;57.36
73870;BME280;64924;42.140;24.762;2023-05-16T07:27:40;99346.53;;;18.77;56.46
73870;BME280;64924;42.140;24.762;2023-05-16T07:30:11;99325.09;;;19.06;56.31
73870;BME280;64924;42.140;24.762;2023-05-16T07:32:37;99296.06;;;18.93;55.48
73870;BME280;64924;42.140;24.762;2023-05-16T07:35:03;99324.84;;;19.07;55.78
73870;BME280;64924;42.140;24.762;2023-05-16T07:37:29;99299.09;;;18.91;55.41
73870;BME280;64924;42.140;24.762;2023-05-16T07:39:55;99299.44;;;19.00;55.39
73870;BME280;64924;42.140;24.762;2023-05-16T07:42:20;99325.00;;;19.22;55.61
73870;BME280;64924;42.140;24.762;2023-05-16T07:44:46;99327.97;;;19.16;55.80
73870;BME280;64924;42.140;24.762;2023-05-16T07:47:11;99330.16;;;19.14;56.04
73870;BME280;64924;42.140;24.762;2023-05-16T07:49:37;99318.72;;;19.27;55.41
73870;BME280;64924;42.140;24.762;2023-05-16T07:52:02;99313.31;;;19.10;55.79
73870;BME280;64924;42.140;24.762;2023-05-16T07:54:29;99319.53;;;19.00;56.08
73870;BME280;64924;42.140;24.762;2023-05-16T07:56:55;99317.88;;;19.26;55.27
73870;BME280;64924;42.140;24.762;2023-05-16T07:59:21;99312.13;;;19.33;55.24
73870;BME280;64924;42.140;24.762;2023-05-16T08:01:47;99274.22;;;19.13;55.11
73870;BME280;64924;42.140;24.762;2023-05-16T08:04:12;99303.03;;;19.27;55.43
73870;BME280;64924;42.140;24.762;2023-05-16T08:06:38;99291.22;;;19.05;55.51
73870;BME280;64924;42.140;24.762;2023-05-16T08:09:04;99296.91;;;18.93;56.49
73870;BME280;64924;42.140;24.762;2023-05-16T08:11:29;99293.25;;;18.88;56.71
73870;BME280;64924;42.140;24.762;2023-05-16T08:13:55;99309.25;;;18.91;57.04
73870;BME280;64924;42.140;24.762;2023-05-16T08:16:20;99272.97;;;18.72;57.11
73870;BME280;64924;42.140;24.762;2023-05-16T08:18:45;99304.03;;;18.94;56.80
73870;BME280;64924;42.140;24.762;2023-05-16T08:21:11;99313.72;;;18.97;57.58
73870;BME280;64924;42.140;24.762;2023-05-16T08:23:38;99301.78;;;18.86;57.13
73870;BME280;64924;42.140;24.762;2023-05-16T08:26:04;99297.81;;;19.04;56.84
73870;BME280;64924;42.140;24.762;2023-05-16T08:28:29;99268.63;;;19.03;56.72
73870;BME280;64924;42.140;24.762;2023-05-16T08:30:55;99299.19;;;19.28;56.12
73870;BME280;64924;42.140;24.762;2023-05-16T08:33:21;99319.38;;;19.12;55.75
73870;BME280;64924;42.140;24.762;2023-05-16T08:35:46;99311.31;;;19.06;56.69
73870;BME280;64924;42.140;24.762;2023-05-16T08:38:13;99295.13;;;19.09;56.63
73870;BME280;64924;42.140;24.762;2023-05-16T08:40:39;99297.75;;;18.99;57.03
73870;BME280;64924;42.140;24.762;2023-05-16T08:43:05;99284.09;;;19.09;57.03
73870;BME280;64924;42.140;24.762;2023-05-16T08:45:31;99285.41;;;19.33;56.19
73870;BME280;64924;42.140;24.762;2023-05-16T08:47:59;99286.59;;;19.11;56.70
73870;BME280;64924;42.140;24.762;2023-05-16T08:50:28;99250.50;;;19.07;56.61
73870;BME280;64924;42.140;24.762;2023-05-16T08:52:55;99264.34;;;19.49;56.13
73870;BME280;64924;42.140;24.762;2023-05-16T08:55:21;99263.69;;;19.69;55.06
73870;BME280;64924;42.140;24.762;2023-05-16T08:57:49;99274.56;;;19.86;54.80
73870;BME280;64924;42.140;24.762;2023-05-16T09:00:18;99262.84;;;19.68;54.70
73870;BME280;64924;42.140;24.762;2023-05-16T09:02:44;99253.63;;;19.90;54.01
73870;BME280;64924;42.140;24.762;2023-05-16T09:05:12;99269.28;;;20.26;54.06
73870;BME280;64924;42.140;24.762;2023-05-16T09:07:38;99265.25;;;19.97;54.58
73870;BME280;64924;42.140;24.762;2023-05-16T09:10:08;99271.66;;;20.02;54.54
73870;BME280;64924;42.140;24.762;2023-05-16T09:12:34;99277.03;;;19.82;55.04
73870;BME280;64924;42.140;24.762;2023-05-16T09:15:05;99257.38;;;19.74;55.71
73870;BME280;64924;42.140;24.762;2023-05-16T09:17:37;99284.31;;;19.98;55.23
73870;BME280;64924;42.140;24.762;2023-05-16T09:20:17;99278.34;;;20.22;54.28
73870;BME280;64924;42.140;24.762;2023-05-16T09:22:53;99271.25;;;20.36;54.19
73870;BME280;64924;42.140;24.762;2023-05-16T09:25:20;99255.59;;;20.52;53.81
73870;BME280;64924;42.140;24.762;2023-05-16T09:27:46;99275.66;;;20.32;54.70
73870;BME280;64924;42.140;24.762;2023-05-16T09:30:14;99264.81;;;20.20;55.35
73870;BME280;64924;42.140;24.762;2023-05-16T09:32:43;99245.72;;;20.03;56.05
73870;BME280;64924;42.140;24.762;2023-05-16T09:35:13;99247.25;;;19.84;56.12
73870;BME280;64924;42.140;24.762;2023-05-16T09:37:43;99247.53;;;19.83;56.15
73870;BME280;64924;42.140;24.762;2023-05-16T09:40:09;99262.66;;;19.80;56.48
73870;BME280;64924;42.140;24.762;2023-05-16T09:42:35;99232.00;;;19.72;57.63
73870;BME280;64924;42.140;24.762;2023-05-16T09:45:00;99237.97;;;19.95;57.09
73870;BME280;64924;42.140;24.762;2023-05-16T09:47:26;99251.25;;;20.03;56.90
73870;BME280;64924;42.140;24.762;2023-05-16T09:49:52;99246.81;;;20.08;57.40
73870;BME280;64924;42.140;24.762;2023-05-16T09:52:18;99220.38;;;20.12;56.85
73870;BME280;64924;42.140;24.762;2023-05-16T09:54:45;99202.75;;;20.18;55.82
73870;BME280;64924;42.140;24.762;2023-05-16T09:57:18;99215.56;;;20.44;55.82
73870;BME280;64924;42.140;24.762;2023-05-16T09:59:44;99221.66;;;20.51;55.24
73870;BME280;64924;42.140;24.762;2023-05-16T10:02:11;99232.22;;;20.85;54.75
73870;BME280;64924;42.140;24.762;2023-05-16T10:04:37;99217.91;;;21.13;53.91
73870;BME280;64924;42.140;24.762;2023-05-16T10:07:04;99248.31;;;21.13;53.21
73870;BME280;64924;42.140;24.762;2023-05-16T10:09:32;99219.56;;;21.04;52.47
73870;BME280;64924;42.140;24.762;2023-05-16T10:12:00;99261.59;;;21.26;52.92
73870;BME280;64924;42.140;24.762;2023-05-16T10:14:33;99259.09;;;21.25;52.59
73870;BME280;64924;42.140;24.762;2023-05-16T10:17:00;99253.25;;;21.01;52.34
73870;BME280;64924;42.140;24.762;2023-05-16T10:19:28;99233.94;;;21.11;52.40
73870;BME280;64924;42.140;24.762;2023-05-16T10:21:57;99224.25;;;21.03;52.20
73870;BME280;64924;42.140;24.762;2023-05-16T10:24:57;99214.84;;;20.99;52.54
73870;BME280;64924;42.140;24.762;2023-05-16T10:27:25;99208.19;;;20.65;53.44
73870;BME280;64924;42.140;24.762;2023-05-16T10:29:51;99200.69;;;20.55;54.12
73870;BME280;64924;42.140;24.762;2023-05-16T10:32:17;99205.13;;;20.56;53.99
73870;BME280;64924;42.140;24.762;2023-05-16T10:34:44;99164.84;;;20.71;53.15
73870;BME280;64924;42.140;24.762;2023-05-16T10:37:10;99201.03;;;21.20;52.63
73870;BME280;64924;42.140;24.762;2023-05-16T10:39:37;99187.25;;;21.40;52.07
73870;BME280;64924;42.140;24.762;2023-05-16T10:42:04;99178.06;;;21.65;51.24
73870;BME280;64924;42.140;24.762;2023-05-16T10:44:31;99175.28;;;21.70;51.10
73870;BME280;64924;42.140;24.762;2023-05-16T10:46:59;99142.13;;;21.60;51.26
73870;BME280;64924;42.140;24.762;2023-05-16T10:49:26;99162.53;;;21.84;51.00
73870;BME280;64924;42.140;24.762;2023-05-16T10:52:08;99155.28;;;22.04;50.90
73870;BME280;64924;42.140;24.762;2023-05-16T10:54:41;99160.22;;;22.17;50.39
73870;BME280;64924;42.140;24.762;2023-05-16T10:57:15;99157.94;;;22.29;50.07
73870;BME280;64924;42.140;24.762;2023-05-16T10:59:43;99170.63;;;22.35;50.39
73870;BME280;64924;42.140;24.762;2023-05-16T11:02:31;99165.19;;;22.20;50.54
73870;BME280;64924;42.140;24.762;2023-05-16T11:04:59;99149.47;;;22.05;50.73
73870;BME280;64924;42.140;24.762;2023-05-16T11:07:31;99137.69;;;22.39;50.31
73870;BME280;64924;42.140;24.762;2023-05-16T11:10:06;99126.31;;;22.40;50.14
73870;BME280;64924;42.140;24.762;2023-05-16T11:12:48;99136.09;;;22.66;49.58
73870;BME280;64924;42.140;24.762;2023-05-16T11:15:24;99148.19;;;22.86;49.30
73870;BME280;64924;42.140;24.762;2023-05-16T11:18:02;99140.88;;;22.61;49.66
73870;BME280;64924;42.140;24.762;2023-05-16T11:20:33;99145.31;;;22.57;49.62
73870;BME280;64924;42.140;24.762;2023-05-16T11:25:52;99138.31;;;22.25;50.26
73870;BME280;64924;42.140;24.762;2023-05-16T11:28:18;99134.25;;;22.08;50.80
73870;BME280;64924;42.140;24.762;2023-05-16T11:30:47;99139.47;;;22.19;50.67
73870;BME280;64924;42.140;24.762;2023-05-16T11:33:14;99144.44;;;22.22;50.85
73870;BME280;64924;42.140;24.762;2023-05-16T11:35:41;99160.13;;;22.32;50.58
73870;BME280;64924;42.140;24.762;2023-05-16T11:38:16;99154.59;;;22.32;50.44
73870;BME280;64924;42.140;24.762;2023-05-16T11:40:43;99148.34;;;22.11;51.33
73870;BME280;64924;42.140;24.762;2023-05-16T11:43:08;99111.03;;;22.04;51.17
73870;BME280;64924;42.140;24.762;2023-05-16T11:45:34;99151.88;;;22.27;50.95
73870;BME280;64924;42.140;24.762;2023-05-16T11:48:03;99155.63;;;22.46;50.57
73870;BME280;64924;42.140;24.762;2023-05-16T11:50:29;99135.63;;;22.59;50.22
73870;BME280;64924;42.140;24.762;2023-05-16T11:52:55;99133.75;;;22.89;49.44
73870;BME280;64924;42.140;24.762;2023-05-16T11:55:27;99104.03;;;22.99;48.84
73870;BME280;64924;42.140;24.762;2023-05-16T11:58:01;99123.91;;;23.36;48.44
73870;BME280;64924;42.140;24.762;2023-05-16T12:00:27;99131.66;;;23.39;48.43
73870;BME280;64924;42.140;24.762;2023-05-16T12:02:54;99129.47;;;23.64;47.89
73870;BME280;64924;42.140;24.762;2023-05-16T12:05:20;99127.72;;;23.92;47.29
73870;BME280;64924;42.140;24.762;2023-05-16T12:07:51;99115.75;;;24.16;46.66
73870;BME280;64924;42.140;24.762;2023-05-16T12:10:20;99101.97;;;23.68;47.15
73870;BME280;64924;42.140;24.762;2023-05-16T12:12:47;99090.56;;;23.41;47.95
73870;BME280;64924;42.140;24.762;2023-05-16T12:15:14;99135.41;;;23.53;48.06
73870;BME280;64924;42.140;24.762;2023-05-16T12:17:41;99143.31;;;23.64;48.08
73870;BME280;64924;42.140;24.762;2023-05-16T12:20:08;99139.34;;;23.42;48.08
73870;BME280;64924;42.140;24.762;2023-05-16T12:22:41;99138.75;;;23.21;48.51
73870;BME280;64924;42.140;24.762;2023-05-16T12:27:45;99138.63;;;23.02;48.95
73870;BME280;64924;42.140;24.762;2023-05-16T12:30:11;99140.34;;;22.98;49.17
73870;BME280;64924;42.140;24.762;2023-05-16T12:32:37;99129.00;;;22.94;48.99
73870;BME280;64924;42.140;24.762;2023-05-16T12:35:03;99134.84;;;23.22;48.66
73870;BME280;64924;42.140;24.762;2023-05-16T12:37:28;99087.44;;;23.23;48.38
73870;BME280;64924;42.140;24.762;2023-05-16T12:39:59;99119.91;;;23.76;47.75
73870;BME280;64924;42.140;24.762;2023-05-16T12:42:26;99106.63;;;23.73;47.47
73870;BME280;64924;42.140;24.762;2023-05-16T12:44:55;99109.06;;;23.50;47.40
73870;BME280;64924;42.140;24.762;2023-05-16T12:47:21;99093.81;;;23.24;48.23
73870;BME280;64924;42.140;24.762;2023-05-16T12:49:47;99082.78;;;23.19;48.36
73870;BME280;64924;42.140;24.762;2023-05-16T12:52:19;99088.88;;;23.45;47.69
73870;BME280;64924;42.140;24.762;2023-05-16T12:54:45;99079.97;;;23.48;47.76
73870;BME280;64924;42.140;24.762;2023-05-16T12:57:11;99073.22;;;23.59;47.62
73870;BME280;64924;42.140;24.762;2023-05-16T12:59:36;99064.34;;;23.57;47.84
73870;BME280;64924;42.140;24.762;2023-05-16T13:02:02;99043.59;;;23.54;48.14
73870;BME280;64924;42.140;24.762;2023-05-16T13:04:28;99064.44;;;23.23;48.67